sensor_id;sensor_type;location;lat;lon;timestamp;P1;durP1;ratioP1;P2;durP2;ratioP2
12597;SDS011;6364;53.590;9.956;2024-01-15T00:00:12;16.30;;;2.60;;
12597;SDS011;6364;53.590;9.956;2024-01-15T00:02:38;15.65;;;2.38;;
12597;SDS011;6364;53.590;9.956;2024-01-15T00:05:04;17.77;;;2.30;;
12597;SDS011;6364;53.590;9.956;2024-01-15T00:07:29;11.98;;;2.15;;
12597;SDS011;6364;53.590;9.956;2024-01-15T00:09:54;11.05;;;2.08;;
12597;SDS011;6364;53.590;9.956;2024-01-15T00:12:20;20.88;;;2.60;;
12597;SDS011;6364;53.590;9.956;2024-01-15T00:14:45;14.23;;;2.42;;
12597;SDS011;6364;53.590;9.956;2024-01-15T00:17:11;17.77;;;2.20;;
12597;SDS011;6364;53.590;9.956;2024-01-15T00:19:36;10.48;;;1.88;;
12597;SDS011;6364;53.590;9.956;2024-01-15T00:22:02;14.80;;;2.90;;
12597;SDS011;6364;53.590;9.956;2024-01-15T00:24:27;12.57;;;2.33;;
12597;SDS011;6364;53.590;9.956;2024-01-15T00:26:52;16.17;;;2.63;;
12597;SDS011;6364;53.590;9.956;2024-01-15T00:29:18;13.40;;;2.15;;
12597;SDS011;6364;53.590;9.956;2024-01-15T00:31:44;8.70;;;2.53;;
12597;SDS011;6364;53.590;9.956;2024-01-15T00:34:09;16.55;;;2.60;;
12597;SDS011;6364;53.590;9.956;2024-01-15T00:36:35;16.63;;;2.38;;
12597;SDS011;6364;53.590;9.956;2024-01-15T00:39:00;15.75;;;2.20;;
12597;SDS011;6364;53.590;9.956;2024-01-15T00:41:26;13.25;;;2.30;;
12597;SDS011;6364;53.590;9.956;2024-01-15T00:43:52;11.02;;;2.03;;
12597;SDS011;6364;53.590;9.956;2024-01-15T00:46:18;16.33;;;2.50;;
12597;SDS011;6364;53.590;9.956;2024-01-15T00:48:44;16.40;;;2.25;;
12597;SDS011;6364;53.590;9.956;2024-01-15T00:51:09;19.30;;;2.38;;
12597;SDS011;6364;53.590;9.956;2024-01-15T00:53:34;13.38;;;2.55;;
12597;SDS011;6364;53.590;9.956;2024-01-15T00:56:00;22.55;;;2.72;;
12597;SDS011;6364;53.590;9.956;2024-01-15T00:58:26;17.40;;;2.78;;
12597;SDS011;6364;53.590;9.956;2024-01-15T01:00:51;8.13;;;2.25;;
12597;SDS011;6364;53.590;9.956;2024-01-15T01:03:17;13.30;;;2.47;;
12597;SDS011;6364;53.590;9.956;2024-01-15T01:05:42;18.38;;;2.38;;
12597;SDS011;6364;53.590;9.956;2024-01-15T01:08:09;14.60;;;2.38;;
12597;SDS011;6364;53.590;9.956;2024-01-15T01:10:34;16.95;;;2.38;;
12597;SDS011;6364;53.590;9.956;2024-01-15T01:13:00;20.77;;;2.15;;
12597;SDS011;6364;53.590;9.956;2024-01-15T01:15:25;12.63;;;2.28;;
12597;SDS011;6364;53.590;9.956;2024-01-15T01:17:52;25.38;;;2.58;;
12597;SDS011;6364;53.590;9.956;2024-01-15T01:20:17;26.45;;;3.05;;
12597;SDS011;6364;53.590;9.956;2024-01-15T01:22:43;16.23;;;2.20;;
12597;SDS011;6364;53.590;9.956;2024-01-15T01:25:08;18.38;;;2.38;;
12597;SDS011;6364;53.590;9.956;2024-01-15T01:27:34;19.55;;;2.35;;
12597;SDS011;6364;53.590;9.956;2024-01-15T01:30:00;20.17;;;2.47;;
12597;SDS011;6364;53.590;9.956;2024-01-15T01:32:26;13.35;;;2.40;;
12597;SDS011;6364;53.590;9.956;2024-01-15T01:34:51;14.20;;;1.88;;
12597;SDS011;6364;53.590;9.956;2024-01-15T01:37:16;19.30;;;2.33;;
12597;SDS011;6364;53.590;9.956;2024-01-15T01:39:43;14.23;;;2.53;;
12597;SDS011;6364;53.590;9.956;2024-01-15T01:42:09;19.58;;;2.25;;
12597;SDS011;6364;53.590;9.956;2024-01-15T01:44:34;16.08;;;2.30;;
12597;SDS011;6364;53.590;9.956;2024-01-15T01:47:00;21.35;;;2.35;;
12597;SDS011;6364;53.590;9.956;2024-01-15T01:49:26;17.40;;;2.53;;
12597;SDS011;6364;53.590;9.956;2024-01-15T01:51:52;11.70;;;2.50;;
12597;SDS011;6364;53.590;9.956;2024-01-15T01:54:18;14.38;;;2.03;;
12597;SDS011;6364;53.590;9.956;2024-01-15T01:56:44;14.25;;;2.03;;
12597;SDS011;6364;53.590;9.956;2024-01-15T01:59:10;13.48;;;1.73;;
12597;SDS011;6364;53.590;9.956;2024-01-15T02:01:36;17.02;;;2.63;;
12597;SDS011;6364;53.590;9.956;2024-01-15T02:07:23;16.52;;;2.08;;
12597;SDS011;6364;53.590;9.956;2024-01-15T02:09:49;20.23;;;2.80;;
12597;SDS011;6364;53.590;9.956;2024-01-15T02:12:14;10.85;;;2.05;;
12597;SDS011;6364;53.590;9.956;2024-01-15T02:14:40;11.23;;;2.40;;
12597;SDS011;6364;53.590;9.956;2024-01-15T02:17:06;13.68;;;2.30;;
12597;SDS011;6364;53.590;9.956;2024-01-15T02:19:31;16.33;;;2.47;;
12597;SDS011;6364;53.590;9.956;2024-01-15T02:21:56;11.57;;;2.53;;
12597;SDS011;6364;53.590;9.956;2024-01-15T02:24:22;6.00;;;2.05;;
12597;SDS011;6364;53.590;9.956;2024-01-15T02:26:48;13.13;;;2.25;;
12597;SDS011;6364;53.590;9.956;2024-01-15T02:29:14;10.98;;;2.30;;
12597;SDS011;6364;53.590;9.956;2024-01-15T02:31:40;15.93;;;2.30;;
12597;SDS011;6364;53.590;9.956;2024-01-15T02:34:05;11.68;;;2.58;;
12597;SDS011;6364;53.590;9.956;2024-01-15T02:36:30;10.98;;;2.45;;
12597;SDS011;6364;53.590;9.956;2024-01-15T02:38:56;17.40;;;3.13;;
12597;SDS011;6364;53.590;9.956;2024-01-15T02:41:21;21.30;;;2.90;;
12597;SDS011;6364;53.590;9.956;2024-01-15T02:43:47;18.23;;;2.78;;
12597;SDS011;6364;53.590;9.956;2024-01-15T02:46:12;16.33;;;2.58;;
12597;SDS011;6364;53.590;9.956;2024-01-15T02:48:37;16.58;;;2.80;;
12597;SDS011;6364;53.590;9.956;2024-01-15T02:51:03;18.08;;;3.17;;
12597;SDS011;6364;53.590;9.956;2024-01-15T02:53:28;16.23;;;2.50;;
12597;SDS011;6364;53.590;9.956;2024-01-15T02:55:54;18.73;;;3.30;;
12597;SDS011;6364;53.590;9.956;2024-01-15T02:58:19;19.17;;;2.92;;
12597;SDS011;6364;53.590;9.956;2024-01-15T03:00:44;25.85;;;3.05;;
12597;SDS011;6364;53.590;9.956;2024-01-15T03:03:11;18.00;;;2.47;;
12597;SDS011;6364;53.590;9.956;2024-01-15T03:05:36;19.02;;;2.72;;
12597;SDS011;6364;53.590;9.956;2024-01-15T03:08:02;18.08;;;2.30;;
12597;SDS011;6364;53.590;9.956;2024-01-15T03:10:27;19.88;;;2.45;;
12597;SDS011;6364;53.590;9.956;2024-01-15T03:12:53;15.60;;;1.95;;
12597;SDS011;6364;53.590;9.956;2024-01-15T03:15:18;14.75;;;2.60;;
12597;SDS011;6364;53.590;9.956;2024-01-15T03:17:44;23.38;;;2.72;;
12597;SDS011;6364;53.590;9.956;2024-01-15T03:20:09;20.88;;;2.70;;
12597;SDS011;6364;53.590;9.956;2024-01-15T03:22:35;21.92;;;2.55;;
12597;SDS011;6364;53.590;9.956;2024-01-15T03:25:01;18.88;;;2.75;;
12597;SDS011;6364;53.590;9.956;2024-01-15T03:27:26;13.50;;;2.60;;
12597;SDS011;6364;53.590;9.956;2024-01-15T03:29:51;17.08;;;2.83;;
12597;SDS011;6364;53.590;9.956;2024-01-15T03:32:17;16.75;;;2.67;;
12597;SDS011;6364;53.590;9.956;2024-01-15T03:34:42;18.92;;;2.72;;
12597;SDS011;6364;53.590;9.956;2024-01-15T03:37:08;24.40;;;2.78;;
12597;SDS011;6364;53.590;9.956;2024-01-15T03:39:33;12.45;;;2.80;;
12597;SDS011;6364;53.590;9.956;2024-01-15T03:41:59;15.70;;;2.17;;
12597;SDS011;6364;53.590;9.956;2024-01-15T03:44:24;21.70;;;3.13;;
12597;SDS011;6364;53.590;9.956;2024-01-15T03:46:50;27.15;;;3.05;;
12597;SDS011;6364;53.590;9.956;2024-01-15T03:49:15;25.75;;;3.03;;
12597;SDS011;6364;53.590;9.956;2024-01-15T03:51:41;18.70;;;2.60;;
12597;SDS011;6364;53.590;9.956;2024-01-15T03:54:06;20.80;;;2.58;;
12597;SDS011;6364;53.590;9.956;2024-01-15T03:56:31;24.33;;;3.08;;
12597;SDS011;6364;53.590;9.956;2024-01-15T03:58:57;19.23;;;2.45;;
12597;SDS011;6364;53.590;9.956;2024-01-15T04:01:22;14.23;;;2.53;;
12597;SDS011;6364;53.590;9.956;2024-01-15T04:03:47;19.38;;;3.08;;
12597;SDS011;6364;53.590;9.956;2024-01-15T04:06:13;20.73;;;2.97;;
12597;SDS011;6364;53.590;9.956;2024-01-15T04:08:38;26.13;;;3.10;;
12597;SDS011;6364;53.590;9.956;2024-01-15T04:11:03;23.13;;;3.30;;
12597;SDS011;6364;53.590;9.956;2024-01-15T04:13:31;27.95;;;3.83;;
12597;SDS011;6364;53.590;9.956;2024-01-15T04:15:57;30.38;;;2.95;;
12597;SDS011;6364;53.590;9.956;2024-01-15T04:18:23;20.55;;;2.70;;
12597;SDS011;6364;53.590;9.956;2024-01-15T04:20:48;27.08;;;3.38;;
12597;SDS011;6364;53.590;9.956;2024-01-15T04:23:13;27.92;;;3.08;;
12597;SDS011;6364;53.590;9.956;2024-01-15T04:25:39;35.20;;;3.38;;
12597;SDS011;6364;53.590;9.956;2024-01-15T04:28:07;21.30;;;2.30;;
12597;SDS011;6364;53.590;9.956;2024-01-15T04:30:33;22.95;;;3.05;;
12597;SDS011;6364;53.590;9.956;2024-01-15T04:32:59;26.20;;;2.53;;
12597;SDS011;6364;53.590;9.956;2024-01-15T04:35:24;17.13;;;3.00;;
12597;SDS011;6364;53.590;9.956;2024-01-15T04:37:50;18.38;;;2.50;;
12597;SDS011;6364;53.590;9.956;2024-01-15T04:40:15;29.10;;;3.05;;
12597;SDS011;6364;53.590;9.956;2024-01-15T04:42:40;29.17;;;3.05;;
12597;SDS011;6364;53.590;9.956;2024-01-15T04:45:06;26.27;;;3.70;;
12597;SDS011;6364;53.590;9.956;2024-01-15T04:47:31;29.17;;;3.15;;
12597;SDS011;6364;53.590;9.956;2024-01-15T04:49:57;25.73;;;3.05;;
12597;SDS011;6364;53.590;9.956;2024-01-15T04:52:22;27.48;;;3.20;;
12597;SDS011;6364;53.590;9.956;2024-01-15T04:54:48;31.20;;;3.45;;
12597;SDS011;6364;53.590;9.956;2024-01-15T04:57:14;38.72;;;3.28;;
12597;SDS011;6364;53.590;9.956;2024-01-15T04:59:40;25.88;;;3.28;;
12597;SDS011;6364;53.590;9.956;2024-01-15T05:02:05;28.88;;;3.70;;
12597;SDS011;6364;53.590;9.956;2024-01-15T05:04:30;18.20;;;2.67;;
12597;SDS011;6364;53.590;9.956;2024-01-15T05:06:56;30.77;;;3.83;;
12597;SDS011;6364;53.590;9.956;2024-01-15T05:09:21;29.90;;;3.95;;
12597;SDS011;6364;53.590;9.956;2024-01-15T05:11:46;26.85;;;3.65;;
12597;SDS011;6364;53.590;9.956;2024-01-15T05:14:12;22.10;;;3.35;;
12597;SDS011;6364;53.590;9.956;2024-01-15T05:16:38;17.65;;;2.83;;
12597;SDS011;6364;53.590;9.956;2024-01-15T05:19:04;24.45;;;3.25;;
12597;SDS011;6364;53.590;9.956;2024-01-15T05:21:29;24.30;;;3.42;;
12597;SDS011;6364;53.590;9.956;2024-01-15T05:23:54;23.60;;;3.60;;
12597;SDS011;6364;53.590;9.956;2024-01-15T05:26:20;23.65;;;3.13;;
12597;SDS011;6364;53.590;9.956;2024-01-15T05:28:45;17.50;;;2.80;;
12597;SDS011;6364;53.590;9.956;2024-01-15T05:31:10;37.72;;;3.97;;
12597;SDS011;6364;53.590;9.956;2024-01-15T05:33:37;29.80;;;3.45;;
12597;SDS011;6364;53.590;9.956;2024-01-15T05:36:02;31.83;;;3.80;;
12597;SDS011;6364;53.590;9.956;2024-01-15T05:38:28;23.40;;;3.10;;
12597;SDS011;6364;53.590;9.956;2024-01-15T05:40:53;23.05;;;3.33;;
12597;SDS011;6364;53.590;9.956;2024-01-15T05:43:19;26.98;;;3.80;;
12597;SDS011;6364;53.590;9.956;2024-01-15T05:45:44;28.15;;;4.22;;
12597;SDS011;6364;53.590;9.956;2024-01-15T05:48:10;22.00;;;3.58;;
12597;SDS011;6364;53.590;9.956;2024-01-15T05:50:36;18.33;;;2.80;;
12597;SDS011;6364;53.590;9.956;2024-01-15T05:53:01;22.30;;;3.75;;
12597;SDS011;6364;53.590;9.956;2024-01-15T05:55:27;19.42;;;3.58;;
12597;SDS011;6364;53.590;9.956;2024-01-15T05:57:53;18.20;;;3.33;;
12597;SDS011;6364;53.590;9.956;2024-01-15T06:00:18;23.00;;;3.58;;
12597;SDS011;6364;53.590;9.956;2024-01-15T06:02:43;26.10;;;3.17;;
12597;SDS011;6364;53.590;9.956;2024-01-15T06:05:09;20.55;;;2.85;;
12597;SDS011;6364;53.590;9.956;2024-01-15T06:07:34;24.27;;;3.50;;
12597;SDS011;6364;53.590;9.956;2024-01-15T06:10:01;24.52;;;4.95;;
12597;SDS011;6364;53.590;9.956;2024-01-15T06:12:27;24.98;;;4.35;;
12597;SDS011;6364;53.590;9.956;2024-01-15T06:14:53;22.67;;;4.82;;
12597;SDS011;6364;53.590;9.956;2024-01-15T06:17:18;27.90;;;5.80;;
12597;SDS011;6364;53.590;9.956;2024-01-15T06:19:44;33.50;;;5.47;;
12597;SDS011;6364;53.590;9.956;2024-01-15T06:22:12;25.63;;;4.85;;
12597;SDS011;6364;53.590;9.956;2024-01-15T06:24:37;22.38;;;3.35;;
12597;SDS011;6364;53.590;9.956;2024-01-15T06:27:03;23.52;;;3.47;;
12597;SDS011;6364;53.590;9.956;2024-01-15T06:29:28;15.27;;;3.05;;
12597;SDS011;6364;53.590;9.956;2024-01-15T06:31:54;22.20;;;3.67;;
12597;SDS011;6364;53.590;9.956;2024-01-15T06:34:19;35.78;;;3.83;;
12597;SDS011;6364;53.590;9.956;2024-01-15T06:36:44;20.70;;;2.90;;
12597;SDS011;6364;53.590;9.956;2024-01-15T06:39:10;18.13;;;2.85;;
12597;SDS011;6364;53.590;9.956;2024-01-15T06:41:35;22.98;;;3.58;;
12597;SDS011;6364;53.590;9.956;2024-01-15T06:44:06;27.35;;;3.30;;
12597;SDS011;6364;53.590;9.956;2024-01-15T06:46:32;25.20;;;3.72;;
12597;SDS011;6364;53.590;9.956;2024-01-15T06:48:57;24.73;;;2.72;;
12597;SDS011;6364;53.590;9.956;2024-01-15T06:51:22;32.35;;;3.30;;
12597;SDS011;6364;53.590;9.956;2024-01-15T06:53:48;25.63;;;3.03;;
12597;SDS011;6364;53.590;9.956;2024-01-15T06:56:13;23.05;;;3.17;;
12597;SDS011;6364;53.590;9.956;2024-01-15T06:58:38;21.20;;;2.78;;
12597;SDS011;6364;53.590;9.956;2024-01-15T07:01:04;20.40;;;2.90;;
12597;SDS011;6364;53.590;9.956;2024-01-15T07:03:29;20.50;;;3.15;;
12597;SDS011;6364;53.590;9.956;2024-01-15T07:05:55;24.50;;;2.95;;
12597;SDS011;6364;53.590;9.956;2024-01-15T07:08:20;16.08;;;2.65;;
12597;SDS011;6364;53.590;9.956;2024-01-15T07:10:45;17.60;;;2.30;;
12597;SDS011;6364;53.590;9.956;2024-01-15T07:13:11;14.90;;;3.08;;
12597;SDS011;6364;53.590;9.956;2024-01-15T07:15:36;18.45;;;2.63;;
12597;SDS011;6364;53.590;9.956;2024-01-15T07:18:02;21.67;;;2.63;;
12597;SDS011;6364;53.590;9.956;2024-01-15T07:20:27;23.90;;;2.78;;
12597;SDS011;6364;53.590;9.956;2024-01-15T07:22:53;8.60;;;2.17;;
12597;SDS011;6364;53.590;9.956;2024-01-15T07:25:18;19.35;;;2.25;;
12597;SDS011;6364;53.590;9.956;2024-01-15T07:27:43;16.90;;;2.72;;
12597;SDS011;6364;53.590;9.956;2024-01-15T07:30:10;20.27;;;2.10;;
12597;SDS011;6364;53.590;9.956;2024-01-15T07:32:36;18.40;;;2.25;;
12597;SDS011;6364;53.590;9.956;2024-01-15T07:35:02;14.15;;;1.88;;
12597;SDS011;6364;53.590;9.956;2024-01-15T07:37:28;16.23;;;2.25;;
12597;SDS011;6364;53.590;9.956;2024-01-15T07:39:53;18.73;;;2.08;;
12597;SDS011;6364;53.590;9.956;2024-01-15T07:42:19;14.25;;;1.75;;
12597;SDS011;6364;53.590;9.956;2024-01-15T07:44:44;13.20;;;2.13;;
12597;SDS011;6364;53.590;9.956;2024-01-15T07:47:10;14.43;;;2.17;;
12597;SDS011;6364;53.590;9.956;2024-01-15T07:49:35;15.95;;;2.30;;
12597;SDS011;6364;53.590;9.956;2024-01-15T07:52:00;12.50;;;2.35;;
12597;SDS011;6364;53.590;9.956;2024-01-15T07:54:26;15.48;;;2.20;;
12597;SDS011;6364;53.590;9.956;2024-01-15T07:56:58;15.80;;;1.95;;
12597;SDS011;6364;53.590;9.956;2024-01-15T07:59:25;19.75;;;2.30;;
12597;SDS011;6364;53.590;9.956;2024-01-15T08:01:51;7.50;;;2.03;;
12597;SDS011;6364;53.590;9.956;2024-01-15T08:04:17;13.88;;;2.10;;
12597;SDS011;6364;53.590;9.956;2024-01-15T08:06:43;16.38;;;2.55;;
12597;SDS011;6364;53.590;9.956;2024-01-15T08:09:08;16.42;;;2.40;;
12597;SDS011;6364;53.590;9.956;2024-01-15T08:11:34;12.75;;;2.20;;
12597;SDS011;6364;53.590;9.956;2024-01-15T08:14:00;12.43;;;2.13;;
12597;SDS011;6364;53.590;9.956;2024-01-15T08:16:25;14.68;;;2.08;;
12597;SDS011;6364;53.590;9.956;2024-01-15T08:18:53;13.82;;;1.77;;
12597;SDS011;6364;53.590;9.956;2024-01-15T08:21:18;11.88;;;1.55;;
12597;SDS011;6364;53.590;9.956;2024-01-15T08:23:44;11.25;;;2.20;;
12597;SDS011;6364;53.590;9.956;2024-01-15T08:26:10;12.25;;;1.40;;
12597;SDS011;6364;53.590;9.956;2024-01-15T08:28:35;15.73;;;2.20;;
12597;SDS011;6364;53.590;9.956;2024-01-15T08:31:01;16.00;;;2.08;;
12597;SDS011;6364;53.590;9.956;2024-01-15T08:33:27;11.70;;;1.80;;
12597;SDS011;6364;53.590;9.956;2024-01-15T08:35:53;12.70;;;1.92;;
12597;SDS011;6364;53.590;9.956;2024-01-15T08:38:18;11.70;;;1.70;;
12597;SDS011;6364;53.590;9.956;2024-01-15T08:40:44;17.10;;;2.33;;
12597;SDS011;6364;53.590;9.956;2024-01-15T08:43:09;14.85;;;2.25;;
12597;SDS011;6364;53.590;9.956;2024-01-15T08:45:35;7.70;;;1.65;;
12597;SDS011;6364;53.590;9.956;2024-01-15T08:48:00;15.63;;;2.63;;
12597;SDS011;6364;53.590;9.956;2024-01-15T08:50:26;9.10;;;1.63;;
12597;SDS011;6364;53.590;9.956;2024-01-15T08:52:51;13.05;;;2.08;;
12597;SDS011;6364;53.590;9.956;2024-01-15T08:55:17;14.98;;;2.38;;
12597;SDS011;6364;53.590;9.956;2024-01-15T08:57:42;10.60;;;2.47;;
12597;SDS011;6364;53.590;9.956;2024-01-15T09:00:08;8.80;;;2.33;;
12597;SDS011;6364;53.590;9.956;2024-01-15T09:02:34;15.27;;;2.30;;
12597;SDS011;6364;53.590;9.956;2024-01-15T09:05:00;14.52;;;2.05;;
12597;SDS011;6364;53.590;9.956;2024-01-15T09:07:26;15.00;;;2.30;;
12597;SDS011;6364;53.590;9.956;2024-01-15T09:09:52;11.20;;;2.38;;
12597;SDS011;6364;53.590;9.956;2024-01-15T09:12:17;11.95;;;2.00;;
12597;SDS011;6364;53.590;9.956;2024-01-15T09:14:43;16.20;;;1.90;;
12597;SDS011;6364;53.590;9.956;2024-01-15T09:17:09;10.50;;;1.83;;
12597;SDS011;6364;53.590;9.956;2024-01-15T09:19:34;14.00;;;3.00;;
12597;SDS011;6364;53.590;9.956;2024-01-15T09:22:00;11.25;;;1.98;;
12597;SDS011;6364;53.590;9.956;2024-01-15T09:24:25;7.97;;;1.83;;
12597;SDS011;6364;53.590;9.956;2024-01-15T09:26:50;17.05;;;2.03;;
12597;SDS011;6364;53.590;9.956;2024-01-15T09:29:16;16.38;;;2.67;;
12597;SDS011;6364;53.590;9.956;2024-01-15T09:31:43;16.33;;;2.30;;
12597;SDS011;6364;53.590;9.956;2024-01-15T09:34:08;12.40;;;2.33;;
12597;SDS011;6364;53.590;9.956;2024-01-15T09:36:38;13.93;;;2.17;;
12597;SDS011;6364;53.590;9.956;2024-01-15T09:39:05;13.60;;;2.22;;
12597;SDS011;6364;53.590;9.956;2024-01-15T09:41:33;16.63;;;2.10;;
12597;SDS011;6364;53.590;9.956;2024-01-15T09:44:02;18.73;;;2.35;;
12597;SDS011;6364;53.590;9.956;2024-01-15T09:46:28;14.63;;;2.03;;
12597;SDS011;6364;53.590;9.956;2024-01-15T09:48:53;12.05;;;1.80;;
12597;SDS011;6364;53.590;9.956;2024-01-15T09:51:19;9.57;;;1.80;;
12597;SDS011;6364;53.590;9.956;2024-01-15T09:53:45;12.82;;;1.80;;
12597;SDS011;6364;53.590;9.956;2024-01-15T09:56:12;16.10;;;2.17;;
12597;SDS011;6364;53.590;9.956;2024-01-15T09:58:38;14.07;;;1.85;;
12597;SDS011;6364;53.590;9.956;2024-01-15T10:01:03;15.07;;;1.90;;
12597;SDS011;6364;53.590;9.956;2024-01-15T10:03:29;19.27;;;2.40;;
12597;SDS011;6364;53.590;9.956;2024-01-15T10:05:56;13.63;;;1.88;;
12597;SDS011;6364;53.590;9.956;2024-01-15T10:08:24;13.15;;;1.90;;
12597;SDS011;6364;53.590;9.956;2024-01-15T10:10:50;7.82;;;1.65;;
12597;SDS011;6364;53.590;9.956;2024-01-15T10:13:15;6.03;;;1.33;;
12597;SDS011;6364;53.590;9.956;2024-01-15T10:15:41;5.70;;;1.30;;
12597;SDS011;6364;53.590;9.956;2024-01-15T10:18:07;12.65;;;1.80;;
12597;SDS011;6364;53.590;9.956;2024-01-15T10:20:33;9.05;;;1.73;;
12597;SDS011;6364;53.590;9.956;2024-01-15T10:22:58;6.15;;;1.35;;
12597;SDS011;6364;53.590;9.956;2024-01-15T10:25:24;11.57;;;1.88;;
12597;SDS011;6364;53.590;9.956;2024-01-15T10:28:00;7.80;;;1.50;;
12597;SDS011;6364;53.590;9.956;2024-01-15T10:30:27;7.47;;;1.30;;
12597;SDS011;6364;53.590;9.956;2024-01-15T10:33:03;9.50;;;1.55;;
12597;SDS011;6364;53.590;9.956;2024-01-15T10:35:33;3.53;;;0.93;;
12597;SDS011;6364;53.590;9.956;2024-01-15T10:37:59;4.53;;;1.38;;
12597;SDS011;6364;53.590;9.956;2024-01-15T10:40:25;9.35;;;1.85;;
12597;SDS011;6364;53.590;9.956;2024-01-15T10:42:50;6.28;;;1.40;;
12597;SDS011;6364;53.590;9.956;2024-01-15T10:45:16;8.95;;;1.98;;
12597;SDS011;6364;53.590;9.956;2024-01-15T10:47:42;5.57;;;1.70;;
12597;SDS011;6364;53.590;9.956;2024-01-15T10:50:08;9.02;;;1.40;;
12597;SDS011;6364;53.590;9.956;2024-01-15T10:52:38;9.93;;;1.50;;
12597;SDS011;6364;53.590;9.956;2024-01-15T10:55:10;4.45;;;1.52;;
12597;SDS011;6364;53.590;9.956;2024-01-15T10:57:36;5.68;;;1.23;;
12597;SDS011;6364;53.590;9.956;2024-01-15T11:00:03;5.95;;;1.35;;
12597;SDS011;6364;53.590;9.956;2024-01-15T11:02:35;3.20;;;1.45;;
12597;SDS011;6364;53.590;9.956;2024-01-15T11:05:01;11.57;;;2.00;;
12597;SDS011;6364;53.590;9.956;2024-01-15T11:07:27;4.93;;;1.70;;
12597;SDS011;6364;53.590;9.956;2024-01-15T11:09:52;7.60;;;1.60;;
12597;SDS011;6364;53.590;9.956;2024-01-15T11:12:17;5.20;;;2.15;;
12597;SDS011;6364;53.590;9.956;2024-01-15T11:17:14;4.13;;;1.65;;
12597;SDS011;6364;53.590;9.956;2024-01-15T11:19:43;10.18;;;1.70;;
12597;SDS011;6364;53.590;9.956;2024-01-15T11:22:11;5.50;;;1.92;;
12597;SDS011;6364;53.590;9.956;2024-01-15T11:25:17;6.35;;;2.08;;
12597;SDS011;6364;53.590;9.956;2024-01-15T11:27:46;8.38;;;1.83;;
12597;SDS011;6364;53.590;9.956;2024-01-15T11:30:16;6.45;;;1.95;;
12597;SDS011;6364;53.590;9.956;2024-01-15T11:32:41;3.80;;;1.70;;
12597;SDS011;6364;53.590;9.956;2024-01-15T11:35:07;6.40;;;1.90;;
12597;SDS011;6364;53.590;9.956;2024-01-15T11:40:22;5.07;;;1.73;;
12597;SDS011;6364;53.590;9.956;2024-01-15T11:42:47;8.95;;;1.65;;
12597;SDS011;6364;53.590;9.956;2024-01-15T11:45:20;4.18;;;1.85;;
12597;SDS011;6364;53.590;9.956;2024-01-15T11:50:26;5.93;;;1.80;;
12597;SDS011;6364;53.590;9.956;2024-01-15T11:53:04;4.65;;;1.80;;
12597;SDS011;6364;53.590;9.956;2024-01-15T11:55:41;4.60;;;2.05;;
12597;SDS011;6364;53.590;9.956;2024-01-15T11:58:10;11.60;;;2.63;;
12597;SDS011;6364;53.590;9.956;2024-01-15T12:00:39;3.67;;;2.50;;
12597;SDS011;6364;53.590;9.956;2024-01-15T12:03:05;9.88;;;2.67;;
12597;SDS011;6364;53.590;9.956;2024-01-15T12:05:31;7.53;;;1.85;;
12597;SDS011;6364;53.590;9.956;2024-01-15T12:07:56;7.57;;;2.25;;
12597;SDS011;6364;53.590;9.956;2024-01-15T12:10:22;5.13;;;2.17;;
12597;SDS011;6364;53.590;9.956;2024-01-15T12:13:00;5.82;;;2.90;;
12597;SDS011;6364;53.590;9.956;2024-01-15T12:15:30;5.18;;;2.00;;
12597;SDS011;6364;53.590;9.956;2024-01-15T12:17:56;8.82;;;2.40;;
12597;SDS011;6364;53.590;9.956;2024-01-15T12:20:24;4.82;;;2.38;;
12597;SDS011;6364;53.590;9.956;2024-01-15T12:22:53;9.60;;;2.92;;
12597;SDS011;6364;53.590;9.956;2024-01-15T12:25:20;6.60;;;2.55;;
12597;SDS011;6364;53.590;9.956;2024-01-15T12:27:45;5.43;;;2.85;;
12597;SDS011;6364;53.590;9.956;2024-01-15T12:30:12;8.20;;;2.78;;
12597;SDS011;6364;53.590;9.956;2024-01-15T12:32:39;9.35;;;2.75;;
12597;SDS011;6364;53.590;9.956;2024-01-15T12:35:06;10.27;;;2.58;;
12597;SDS011;6364;53.590;9.956;2024-01-15T12:37:31;7.05;;;3.30;;
12597;SDS011;6364;53.590;9.956;2024-01-15T12:39:58;7.28;;;2.83;;
12597;SDS011;6364;53.590;9.956;2024-01-15T12:42:24;4.88;;;2.15;;
12597;SDS011;6364;53.590;9.956;2024-01-15T12:44:49;6.35;;;2.42;;
12597;SDS011;6364;53.590;9.956;2024-01-15T12:47:14;3.25;;;2.10;;
12597;SDS011;6364;53.590;9.956;2024-01-15T12:49:46;4.35;;;2.30;;
12597;SDS011;6364;53.590;9.956;2024-01-15T12:52:11;2.50;;;2.20;;
12597;SDS011;6364;53.590;9.956;2024-01-15T12:54:37;5.00;;;1.98;;
12597;SDS011;6364;53.590;9.956;2024-01-15T12:57:02;5.10;;;2.30;;
12597;SDS011;6364;53.590;9.956;2024-01-15T12:59:28;3.95;;;2.33;;
12597;SDS011;6364;53.590;9.956;2024-01-15T13:01:54;5.97;;;2.60;;
12597;SDS011;6364;53.590;9.956;2024-01-15T13:04:23;6.40;;;2.45;;
12597;SDS011;6364;53.590;9.956;2024-01-15T13:06:52;4.78;;;2.58;;
12597;SDS011;6364;53.590;9.956;2024-01-15T13:09:18;4.13;;;2.38;;
12597;SDS011;6364;53.590;9.956;2024-01-15T13:11:44;7.05;;;2.95;;
12597;SDS011;6364;53.590;9.956;2024-01-15T13:14:10;5.18;;;2.08;;
12597;SDS011;6364;53.590;9.956;2024-01-15T13:16:35;4.07;;;2.20;;
12597;SDS011;6364;53.590;9.956;2024-01-15T13:19:00;4.65;;;2.03;;
12597;SDS011;6364;53.590;9.956;2024-01-15T13:21:26;7.53;;;2.17;;
12597;SDS011;6364;53.590;9.956;2024-01-15T13:23:51;6.05;;;2.20;;
12597;SDS011;6364;53.590;9.956;2024-01-15T13:26:17;3.88;;;2.25;;
12597;SDS011;6364;53.590;9.956;2024-01-15T13:28:44;9.70;;;2.30;;
12597;SDS011;6364;53.590;9.956;2024-01-15T13:31:09;5.57;;;2.50;;
12597;SDS011;6364;53.590;9.956;2024-01-15T13:33:34;7.05;;;2.25;;
12597;SDS011;6364;53.590;9.956;2024-01-15T13:36:00;4.65;;;2.70;;
12597;SDS011;6364;53.590;9.956;2024-01-15T13:38:25;9.13;;;2.50;;
12597;SDS011;6364;53.590;9.956;2024-01-15T13:40:52;3.40;;;2.67;;
12597;SDS011;6364;53.590;9.956;2024-01-15T13:43:18;6.13;;;2.85;;
12597;SDS011;6364;53.590;9.956;2024-01-15T13:45:44;6.70;;;2.78;;
12597;SDS011;6364;53.590;9.956;2024-01-15T13:48:09;10.95;;;3.00;;
12597;SDS011;6364;53.590;9.956;2024-01-15T13:50:35;7.18;;;2.95;;
12597;SDS011;6364;53.590;9.956;2024-01-15T13:53:00;7.47;;;3.13;;
12597;SDS011;6364;53.590;9.956;2024-01-15T13:55:27;7.53;;;4.00;;
12597;SDS011;6364;53.590;9.956;2024-01-15T13:57:53;9.60;;;3.53;;
12597;SDS011;6364;53.590;9.956;2024-01-15T14:00:19;6.28;;;2.80;;
12597;SDS011;6364;53.590;9.956;2024-01-15T14:02:45;5.45;;;3.60;;
12597;SDS011;6364;53.590;9.956;2024-01-15T14:05:11;11.43;;;3.42;;
12597;SDS011;6364;53.590;9.956;2024-01-15T14:07:40;7.45;;;2.88;;
12597;SDS011;6364;53.590;9.956;2024-01-15T14:10:09;16.63;;;3.50;;
12597;SDS011;6364;53.590;9.956;2024-01-15T14:12:35;5.57;;;2.70;;
12597;SDS011;6364;53.590;9.956;2024-01-15T14:15:01;6.68;;;3.17;;
12597;SDS011;6364;53.590;9.956;2024-01-15T14:17:27;5.90;;;2.85;;
12597;SDS011;6364;53.590;9.956;2024-01-15T14:19:53;5.97;;;2.90;;
12597;SDS011;6364;53.590;9.956;2024-01-15T14:22:18;7.15;;;3.28;;
12597;SDS011;6364;53.590;9.956;2024-01-15T14:24:43;7.63;;;3.35;;
12597;SDS011;6364;53.590;9.956;2024-01-15T14:27:09;6.50;;;3.20;;
12597;SDS011;6364;53.590;9.956;2024-01-15T14:29:35;7.70;;;4.15;;
12597;SDS011;6364;53.590;9.956;2024-01-15T14:32:01;10.38;;;3.00;;
12597;SDS011;6364;53.590;9.956;2024-01-15T14:34:27;5.78;;;3.10;;
12597;SDS011;6364;53.590;9.956;2024-01-15T14:36:52;5.95;;;2.45;;
12597;SDS011;6364;53.590;9.956;2024-01-15T14:39:24;5.60;;;2.63;;
12597;SDS011;6364;53.590;9.956;2024-01-15T14:41:50;6.13;;;3.17;;
12597;SDS011;6364;53.590;9.956;2024-01-15T14:44:19;5.95;;;2.90;;
12597;SDS011;6364;53.590;9.956;2024-01-15T14:46:44;5.38;;;2.95;;
12597;SDS011;6364;53.590;9.956;2024-01-15T14:49:10;6.70;;;3.10;;
12597;SDS011;6364;53.590;9.956;2024-01-15T14:51:36;5.38;;;3.40;;
12597;SDS011;6364;53.590;9.956;2024-01-15T14:54:01;9.13;;;3.88;;
12597;SDS011;6364;53.590;9.956;2024-01-15T14:56:27;8.35;;;3.70;;